createdAt,value
2022-12-18T00:00:45.384Z,12.70
2022-12-18T00:05:51.875Z,15.85
2022-12-18T00:10:53.684Z,23.90
2022-12-18T00:16:06.371Z,16.03
2022-12-18T00:21:10.542Z,12.07
2022-12-18T00:26:16.152Z,12.13
2022-12-18T00:31:21.388Z,12.80
2022-12-18T00:36:26.918Z,12.20
2022-12-18T00:41:47.679Z,12.23
2022-12-18T00:46:50.020Z,13.07
2022-12-18T00:51:51.953Z,12.93
2022-12-18T00:56:53.987Z,11.77
2022-12-18T01:01:56.084Z,11.50
2022-12-18T01:06:57.935Z,12.00
2022-12-18T01:11:59.789Z,12.85
2022-12-18T01:17:03.817Z,12.90
2022-12-18T01:22:08.262Z,13.70
2022-12-18T01:27:10.604Z,12.18
2022-12-18T01:32:12.521Z,12.50
2022-12-18T01:37:14.831Z,11.75
2022-12-18T01:42:17.411Z,11.52
2022-12-18T01:47:25.069Z,12.77
2022-12-18T01:52:30.437Z,12.07
2022-12-18T01:57:32.826Z,11.10
2022-12-18T02:02:35.023Z,11.20
2022-12-18T02:07:58.135Z,10.20
2022-12-18T02:13:21.421Z,11.05
2022-12-18T02:18:30.836Z,9.75
2022-12-18T02:23:52.893Z,10.30
2022-12-18T02:29:08.746Z,10.90
2022-12-18T02:34:13.570Z,8.75
2022-12-18T02:39:17.014Z,8.82
2022-12-18T02:44:31.539Z,9.35
2022-12-18T02:49:54.497Z,9.00
2022-12-18T02:55:31.677Z,9.52
2022-12-18T03:00:38.762Z,8.23
2022-12-18T03:06:13.396Z,8.52
2022-12-18T03:11:16.283Z,7.60
2022-12-18T03:16:32.290Z,7.82
2022-12-18T03:21:41.404Z,8.40
2022-12-18T03:26:47.389Z,8.18
2022-12-18T03:31:55.206Z,7.10
2022-12-18T03:36:57.423Z,8.25
2022-12-18T03:42:13.557Z,7.85
2022-12-18T03:48:01.636Z,7.10
2022-12-18T03:53:34.257Z,5.85
2022-12-18T03:58:39.258Z,7.30
2022-12-18T04:03:53.267Z,6.63
2022-12-18T04:08:56.144Z,6.70
2022-12-18T04:14:04.685Z,7.25
2022-12-18T04:19:09.302Z,6.07
2022-12-18T04:24:15.339Z,6.10
2022-12-18T04:29:26.613Z,6.43
2022-12-18T04:34:28.882Z,5.97
2022-12-18T04:39:31.584Z,5.70
2022-12-18T04:44:39.117Z,4.27
2022-12-18T04:49:41.016Z,5.20
2022-12-18T04:54:43.034Z,5.10
2022-12-18T04:59:45.578Z,4.82
2022-12-18T05:04:47.378Z,5.35
2022-12-18T05:09:49.187Z,5.20
2022-12-18T05:14:51.013Z,4.75
2022-12-18T05:19:52.814Z,5.13
2022-12-18T05:24:54.598Z,4.72
2022-12-18T05:29:56.383Z,5.22
2022-12-18T05:34:58.355Z,6.43
2022-12-18T05:40:00.351Z,5.85
2022-12-18T05:45:02.184Z,6.57
2022-12-18T05:50:04.333Z,7.38
2022-12-18T05:55:06.315Z,7.82
2022-12-18T06:00:08.902Z,6.05
2022-12-18T06:05:14.057Z,5.68
2022-12-18T06:10:15.910Z,5.03
2022-12-18T06:15:18.121Z,6.90
2022-12-18T06:20:20.341Z,4.85
2022-12-18T06:25:22.389Z,5.88
2022-12-18T06:30:24.255Z,5.05
2022-12-18T06:35:26.068Z,5.18
2022-12-18T06:40:27.990Z,5.60
2022-12-18T06:45:30.068Z,4.85
2022-12-18T06:50:32.005Z,5.10
2022-12-18T06:55:33.956Z,6.50
2022-12-18T07:00:36.000Z,6.85
2022-12-18T07:05:42.022Z,8.32
2022-12-18T07:10:47.458Z,10.20
2022-12-18T07:15:50.247Z,9.35
2022-12-18T07:20:52.114Z,7.10
2022-12-18T07:25:54.151Z,8.43
2022-12-18T07:30:55.953Z,7.50
2022-12-18T07:36:00.222Z,8.75
2022-12-18T07:41:07.485Z,7.43
2022-12-18T07:46:10.976Z,8.15
2022-12-18T07:51:15.409Z,7.57
2022-12-18T07:56:27.217Z,8.45
2022-12-18T08:01:29.894Z,6.72
2022-12-18T08:06:31.970Z,8.18
2022-12-18T08:11:33.781Z,10.27
2022-12-18T08:16:35.731Z,8.82
2022-12-18T08:21:38.131Z,8.02
2022-12-18T08:26:39.973Z,8.02
2022-12-18T08:31:42.317Z,7.97
2022-12-18T08:36:44.650Z,8.32
2022-12-18T08:42:10.126Z,8.73
2022-12-18T08:47:12.253Z,8.43
2022-12-18T08:52:16.838Z,8.18
2022-12-18T08:57:19.145Z,7.95
2022-12-18T09:02:21.075Z,7.55
2022-12-18T09:07:22.997Z,9.38
2022-12-18T09:12:24.830Z,9.38
2022-12-18T09:17:27.367Z,10.35
2022-12-18T09:22:29.195Z,10.32
2022-12-18T09:27:30.979Z,10.35
2022-12-18T09:32:32.790Z,10.45
2022-12-18T09:37:34.627Z,9.93
2022-12-18T09:42:36.483Z,10.23
2022-12-18T09:47:41.668Z,9.07
2022-12-18T09:52:49.244Z,10.18
2022-12-18T09:57:56.153Z,13.20
2022-12-18T10:03:04.638Z,11.35
2022-12-18T10:08:24.650Z,14.13
2022-12-18T10:13:42.204Z,11.63
2022-12-18T10:19:08.761Z,12.02
2022-12-18T10:24:27.830Z,13.18
2022-12-18T10:29:29.857Z,16.42
2022-12-18T10:34:31.787Z,14.77
2022-12-18T10:39:33.586Z,18.27
2022-12-18T10:44:35.464Z,36.95
2022-12-18T10:49:38.605Z,23.63
2022-12-18T10:54:40.465Z,21.50
2022-12-18T11:00:25.637Z,20.67
2022-12-18T11:05:31.923Z,16.33
2022-12-18T11:10:38.940Z,15.82
2022-12-18T11:15:42.607Z,12.30
2022-12-18T11:20:58.645Z,15.40
2022-12-18T11:26:03.714Z,15.45
2022-12-18T11:31:27.252Z,18.95
2022-12-18T11:36:40.556Z,18.20
2022-12-18T11:42:10.744Z,18.25
2022-12-18T11:47:30.765Z,17.05
2022-12-18T11:52:41.607Z,18.88
2022-12-18T11:57:54.993Z,18.92
2022-12-18T12:03:05.764Z,17.33
2022-12-18T12:08:32.869Z,16.40
2022-12-18T12:13:42.999Z,17.42
2022-12-18T12:18:54.007Z,17.30
2022-12-18T12:24:23.700Z,17.48
2022-12-18T12:30:06.750Z,16.92
2022-12-18T12:35:19.370Z,19.65
2022-12-18T12:40:51.414Z,20.20
2022-12-18T12:46:13.925Z,17.70
2022-12-18T12:51:37.729Z,16.40
2022-12-18T12:57:02.776Z,15.95
2022-12-18T13:02:18.372Z,15.50
2022-12-18T13:07:53.073Z,15.27
2022-12-18T13:12:58.917Z,14.77
2022-12-18T13:18:14.209Z,13.68
2022-12-18T13:23:25.349Z,12.65
2022-12-18T13:28:46.417Z,13.90
2022-12-18T13:34:24.583Z,15.63
2022-12-18T13:39:12.040Z,14.90
2022-12-18T13:44:26.603Z,14.65
2022-12-18T13:49:39.151Z,14.88
2022-12-18T13:54:43.234Z,14.82
2022-12-18T13:59:44.972Z,16.60
2022-12-18T14:04:48.037Z,12.82
2022-12-18T14:10:12.125Z,13.10
2022-12-18T14:20:30.646Z,12.63
2022-12-18T14:25:33.826Z,13.32
2022-12-18T14:30:44.098Z,13.43
2022-12-18T14:36:01.772Z,13.02
2022-12-18T14:41:07.506Z,16.75
2022-12-18T14:46:34.046Z,14.07
2022-12-18T14:51:37.470Z,11.45
2022-12-18T14:56:48.981Z,12.95
2022-12-18T15:02:06.086Z,12.02
2022-12-18T15:07:17.291Z,13.93
2022-12-18T15:12:43.768Z,13.93
2022-12-18T15:17:45.563Z,13.27
2022-12-18T15:22:48.783Z,13.93
2022-12-18T15:27:50.629Z,15.48
2022-12-18T15:32:53.891Z,13.82
2022-12-18T15:37:55.778Z,17.73
2022-12-18T15:43:15.997Z,14.05
2022-12-18T15:48:23.720Z,12.98
2022-12-18T15:53:34.950Z,13.90
2022-12-18T15:58:36.726Z,13.45
2022-12-18T16:03:39.105Z,15.27
2022-12-18T16:08:41.125Z,13.48
2022-12-18T16:13:43.649Z,13.73
2022-12-18T16:18:45.715Z,13.80
2022-12-18T16:23:47.537Z,15.05
2022-12-18T16:28:49.356Z,14.68
2022-12-18T16:33:51.100Z,13.27
2022-12-18T16:38:52.887Z,13.90
2022-12-18T16:43:55.228Z,13.68
2022-12-18T16:48:59.822Z,11.90
2022-12-18T16:54:06.440Z,13.95
2022-12-18T16:59:12.843Z,12.02
2022-12-18T17:04:15.273Z,13.65
2022-12-18T17:09:37.194Z,14.68
2022-12-18T17:14:39.105Z,11.40
2022-12-18T17:19:41.159Z,11.52
2022-12-18T17:24:43.624Z,12.52
2022-12-18T17:29:48.430Z,11.95
2022-12-18T17:34:50.694Z,13.07
2022-12-18T17:39:53.523Z,12.32
2022-12-18T17:44:55.534Z,11.30
2022-12-18T17:49:57.370Z,13.48
2022-12-18T17:54:59.299Z,13.95
2022-12-18T18:00:01.163Z,13.02
2022-12-18T18:05:03.015Z,14.27
2022-12-18T18:10:06.614Z,13.68
2022-12-18T18:15:09.086Z,12.02
2022-12-18T18:20:11.840Z,10.27
2022-12-18T18:25:17.189Z,12.18
2022-12-18T18:30:23.328Z,12.35
2022-12-18T18:35:52.929Z,12.32
2022-12-18T18:40:47.291Z,12.95
2022-12-18T18:45:49.115Z,12.18
2022-12-18T18:51:05.171Z,29.27
2022-12-18T19:01:30.150Z,13.25
2022-12-18T19:06:32.345Z,12.15
2022-12-18T19:11:54.258Z,12.82
2022-12-18T19:16:56.226Z,11.57
2022-12-18T19:21:58.962Z,13.05
2022-12-18T19:27:03.070Z,11.10
2022-12-18T19:32:05.848Z,11.90
2022-12-18T19:37:07.900Z,13.82
2022-12-18T19:42:10.104Z,12.48
2022-12-18T19:47:14.829Z,11.65
2022-12-18T19:52:18.473Z,11.27
2022-12-18T19:57:20.391Z,13.50
2022-12-18T20:02:22.580Z,10.25
2022-12-18T20:07:26.536Z,9.23
2022-12-18T20:12:28.575Z,11.73
2022-12-18T20:17:33.286Z,9.20
2022-12-18T20:22:35.753Z,7.95
2022-12-18T20:27:37.657Z,8.57
2022-12-18T20:32:39.431Z,9.35
2022-12-18T20:37:43.813Z,9.38
2022-12-18T20:42:50.424Z,8.20
2022-12-18T20:47:57.280Z,8.57
2022-12-18T20:52:58.979Z,10.18
2022-12-18T20:58:00.651Z,8.80
2022-12-18T21:03:02.379Z,8.57
2022-12-18T21:08:04.843Z,7.35
2022-12-18T21:13:08.460Z,7.43
2022-12-18T21:18:11.936Z,6.85
2022-12-18T21:23:16.832Z,6.30
2022-12-18T21:28:18.809Z,8.68
2022-12-18T21:33:20.765Z,7.88
2022-12-18T21:38:22.448Z,8.13
2022-12-18T21:43:42.862Z,8.57
2022-12-18T21:48:44.583Z,8.27
2022-12-18T21:53:46.268Z,9.68
2022-12-18T21:58:55.378Z,9.20
2022-12-18T22:03:59.118Z,10.50
2022-12-18T22:09:00.971Z,8.95
2022-12-18T22:14:02.757Z,10.48
2022-12-18T22:19:04.507Z,10.80
2022-12-18T22:24:10.579Z,11.35
2022-12-18T22:29:37.189Z,11.10
2022-12-18T22:34:39.601Z,12.15
2022-12-18T22:39:41.357Z,11.77
2022-12-18T22:44:43.624Z,10.82
2022-12-18T22:49:45.428Z,10.80
2022-12-18T22:54:47.170Z,11.32
2022-12-18T22:59:50.072Z,11.60
2022-12-18T23:04:52.256Z,11.77
2022-12-18T23:09:59.599Z,11.90
2022-12-18T23:15:03.625Z,11.07
2022-12-18T23:20:05.909Z,12.70
2022-12-18T23:25:08.215Z,11.75
2022-12-18T23:30:10.565Z,11.10
2022-12-18T23:35:14.270Z,11.27
2022-12-18T23:40:17.999Z,11.30
2022-12-18T23:45:19.741Z,12.07
2022-12-18T23:50:22.747Z,12.90
2022-12-18T23:55:32.563Z,13.88
